Terrington Saint Clement, United Kingdom
Current Conditions -  °F | °C
As of 2:50 AM on Friday 28 Nov 2014 (Local Time) from EGYM Reporting Station
Haze Haze  
Wind Chill: 50°   Ceiling: 2100
Heat Index: 50°   Visibility: 4mi
Dew Point: 48°   Wind: 8mph
Humidity: 94%   Direction: 90°E
Pressure: 29.62"   Gusts: NA
Location:  52.75°N, 0.3°E
Report Text: EGYM 280250Z AUTO 09007KT 6000 BR FEW016/// BKN021/// 10/09 Q1003
Loading
Personal Weather Stations






























Interactive Weather Map New forecast layout! Learn more

10-Day Weather Forecast

Advertisements
Track Severe Weather on mobile